LFKSLOWI

Guest
Details From LFKS - Solenzara
To LOWI - Innsbruck Kranebitten
Flight Number -
Tags generated
Created
Modified
Stats Distance 344 nm / 637 km
Max Altitude 35,000 ft / 10,668 m
Waypoints 9
Social Downloads 0
Likes 0
Share VATSIM

Download

Looking for another format? Having issues loading an existing format? Contact us
Advertisement - Login to hide

Notes

Basic altitude profile: - Ascent Rate: 2500ft/min - Ascent Speed: 250kts - Cruise Altitude: 35000ft - Cruise Speed: 420kts - Descent Rate: 1500ft/min - Descent Speed: 250kts Options: - Use NATs: yes - Use PACOTS: yes - Use low airways: yes - Use high airways: yes

Route

LFKS MAREL UL12 FRZ L12 BOA UM738 ADOSA LOWI

ID Type Via Altitude Latitude Longitude Leg Dist Tot Dist Heading (true) Name
O LFKS APT - 0 ft / 0 m 41.92462˚ 9.40532˚ - 0 nm - Solenzara
MAREL FIX - 35,000 ft / 10,668 m 43.28194˚ 10.65139˚ 98 nm 98 nm 34° / 34° -
GINAR FIX UL12 (AWY-HI) 35,000 ft / 10,668 m 43.63250˚ 10.81611˚ 22 nm 120 nm 19° / 19° -
FRZ VOR UL12 (AWY-HI) 35,000 ft / 10,668 m 44.02718˚ 11.00331˚ 25 nm 145 nm 19° / 19° FIRENZE VORTAC
BOA VOR L12 (AWY-LO) 19,500 ft / 5,944 m 44.53694˚ 11.29055˚ 33 nm 178 nm 22° / 22° BOLOGNA VOR-DME
KREVA FIX UM738 (AWY-HI) 32,300 ft / 9,845 m 44.77444˚ 11.23500˚ 14 nm 193 nm 351° / 351° -
OSTEG FIX UM738 (AWY-HI) 26,000 ft / 7,925 m 45.17861˚ 11.13889˚ 24 nm 217 nm 350° / 350° -
ADOSA FIX UM738 (AWY-HI) 20,900 ft / 6,370 m 45.64444˚ 11.02639˚ 28 nm 246 nm 350° / 350° -
O LOWI APT - 0 ft / 0 m 47.26023˚ 11.34397˚ 97 nm 344 nm 8° / 8° Innsbruck Kranebitten

Altitude Profile

Advertisement - Login to hide

Weather


0- 5 10 15 20 25 30 35+ Temperature / ° C

Clouds and Precipitation
Forecast for 2018-05-24 06:00 UTC. Updated 3 hours ago

Ground ~20,000 ft ~40,000 ft Winds

LFKS

Details ICAO LFKS (SOZ)
Name Solenzara
Region France
Timezone Europe/Paris (UTC+2.0)
Stats Elevation 27 ft / 8 m (AMSL)
Location 41.924616° 9.405323°
Runways 1
Magnetic Variation 2.499° E

METAR

LFKS 240830Z AUTO 12004KT 080V160 CAVOK 22/15 Q1018

Decode

TAF

TAF LFKS 240800Z 2409/2509 14008KT 9999 FEW040= TAF LFMO 240800Z 2409/2509 VRB02KT CAVOK TEMPO 2412/2418 21012KT TEMPO 2503/2505 3000 BR

Decode

Departure Runways

ID Width Length Bearing (true) Bearing (mag) Surface Threshold Offset Overrun Length
18 148 ft / 45 m 8,582 ft / 2,616 m 179.77° 177.27° Concrete 0 ft / 0 m 686 ft / 209 m
36 148 ft / 45 m 8,582 ft / 2,616 m 359.77° 357.27° Concrete 0 ft / 0 m 935 ft / 285 m

LOWI

Details ICAO LOWI (INN)
Name Innsbruck Kranebitten
Region Austria
Timezone Europe/Vienna (UTC+2.0)
Stats Elevation 1,906 ft / 581 m (AMSL)
Location 47.260226° 11.343967°
Runways 1
Magnetic Variation 3.071° E

METAR

LOWI 240820Z 09004KT 050V120 9999 SCT010 SCT120 16/13 Q1019 NOSIG

Decode

TAF

TAF LOWI 240515Z 2406/2506 08004KT 9999 FEW007 SCT070 BKN120 TX22/2414Z TN12/2504Z PROB40 TEMPO 2406/2408 12010KT SHRA SCT007 FEW060TCU BKN080 BECMG 2409/2411 08008KT SCT070 FEW070TCU TEMPO 2411/2420 VRB15G25KT 6000 TSRA SCT070CB BKN080 BECMG 2419/2421 27004KT FEW010 PROB40 TEMPO 2500/2506 BKN010

Decode

Destination Runways

ID Width Length Bearing (true) Bearing (mag) Surface Threshold Offset Overrun Length
08 148 ft / 45 m 6,545 ft / 1,995 m 81.02° 77.95° Asphalt 338 ft / 103 m 0 ft / 0 m
26 148 ft / 45 m 6,545 ft / 1,995 m 261.04° 257.97° Asphalt 0 ft / 0 m 0 ft / 0 m

Approach Navaids

Runway Type Ident Frequency Range Bearing (true) Bearing (mag) Slope Elevation
26 Localiser OEV 111.10 MHz 27 nm / 50 km 256.00° 252.93° - 1,906 ft / 581 m (AMSL)
26 Localiser OEJ 109.70 MHz 30 nm / 56 km 69.00° 65.93° - 1,906 ft / 581 m (AMSL)
26 Glidescope OEV 111.10 MHz 18 nm / 33 km 256.00° 252.93° 3.80° 1,911 ft / 582 m (AMSL)
26 DME OEJ 109.70 MHz 30 nm / 56 km - - - 1,906 ft / 581 m (AMSL)
26 DME OEV 111.10 MHz 27 nm / 50 km - - - 1,911 ft / 582 m (AMSL)

Popular Alternatives